createdAt,value
2018-03-25T00:01:53.304Z,26.60
2018-03-25T00:04:21.240Z,28.33
2018-03-25T00:06:49.184Z,28.07
2018-03-25T00:09:17.094Z,25.67
2018-03-25T00:11:45.057Z,25.47
2018-03-25T00:14:13.014Z,26.50
2018-03-25T00:16:41.035Z,26.40
2018-03-25T00:19:08.959Z,25.10
2018-03-25T00:21:36.922Z,25.50
2018-03-25T00:24:04.946Z,26.50
2018-03-25T00:26:32.913Z,24.97
2018-03-25T00:29:00.842Z,26.97
2018-03-25T00:31:28.787Z,25.53
2018-03-25T00:33:56.736Z,26.47
2018-03-25T00:36:24.668Z,28.33
2018-03-25T00:38:52.618Z,26.90
2018-03-25T00:41:20.634Z,30.20
2018-03-25T00:43:48.559Z,26.23
2018-03-25T00:46:16.497Z,25.77
2018-03-25T00:48:44.433Z,28.20
2018-03-25T00:51:12.360Z,28.57
2018-03-25T00:53:40.302Z,27.67
2018-03-25T00:56:08.244Z,28.43
2018-03-25T00:58:36.173Z,24.93
2018-03-25T01:01:05.025Z,25.47
2018-03-25T01:03:32.973Z,28.77
2018-03-25T01:06:00.949Z,27.30
2018-03-25T01:08:28.892Z,27.53
2018-03-25T01:10:56.838Z,28.70
2018-03-25T01:13:24.784Z,28.73
2018-03-25T01:16:04.571Z,28.90
2018-03-25T01:18:32.674Z,30.07
2018-03-25T01:21:00.682Z,28.20
2018-03-25T01:23:28.682Z,27.20
2018-03-25T01:25:56.605Z,29.03
2018-03-25T01:28:24.604Z,26.30
2018-03-25T01:30:52.538Z,27.77
2018-03-25T01:33:20.544Z,28.03
2018-03-25T01:35:48.527Z,28.90
2018-03-25T01:38:16.496Z,26.47
2018-03-25T01:40:44.432Z,28.57
2018-03-25T01:43:12.386Z,28.97
2018-03-25T01:45:40.327Z,28.70
2018-03-25T01:48:08.279Z,29.53
2018-03-25T01:50:36.222Z,26.20
2018-03-25T01:53:04.201Z,28.30
2018-03-25T01:55:32.105Z,27.80
2018-03-25T01:58:00.052Z,29.27
2018-03-25T02:00:27.960Z,28.10
2018-03-25T02:02:55.878Z,27.40
2018-03-25T02:05:23.883Z,29.40
2018-03-25T02:07:51.805Z,26.30
2018-03-25T02:10:19.742Z,26.53
2018-03-25T02:12:47.664Z,26.30
2018-03-25T02:15:15.574Z,30.00
2018-03-25T02:17:43.541Z,28.83
2018-03-25T02:20:11.459Z,31.43
2018-03-25T02:22:39.377Z,29.30
2018-03-25T02:25:07.451Z,29.20
2018-03-25T02:27:35.436Z,30.60
2018-03-25T02:30:03.375Z,29.73
2018-03-25T02:32:31.379Z,30.50
2018-03-25T02:34:59.368Z,28.43
2018-03-25T02:37:27.307Z,28.53
2018-03-25T02:39:55.266Z,30.07
2018-03-25T02:42:23.290Z,31.70
2018-03-25T02:44:51.224Z,30.90
2018-03-25T02:47:19.165Z,30.00
2018-03-25T02:49:47.056Z,29.97
2018-03-25T02:52:15.017Z,29.57
2018-03-25T02:54:42.955Z,29.50
2018-03-25T02:57:10.921Z,29.40
2018-03-25T02:59:38.813Z,27.87
2018-03-25T03:02:08.797Z,30.27
2018-03-25T03:04:36.796Z,29.10
2018-03-25T03:07:04.851Z,30.93
2018-03-25T03:09:32.887Z,29.43
2018-03-25T03:12:00.936Z,28.10
2018-03-25T03:14:29.043Z,31.17
2018-03-25T03:16:57.051Z,29.03
2018-03-25T03:19:25.073Z,29.50
2018-03-25T03:21:53.150Z,31.50
2018-03-25T03:24:21.189Z,28.57
2018-03-25T03:26:49.210Z,29.93
2018-03-25T03:29:17.209Z,30.40
2018-03-25T03:31:45.234Z,34.07
2018-03-25T03:34:13.397Z,30.50
2018-03-25T03:36:41.414Z,31.93
2018-03-25T03:39:09.414Z,31.90
2018-03-25T03:41:37.400Z,29.30
2018-03-25T03:44:05.586Z,31.90
2018-03-25T03:46:33.934Z,32.87
2018-03-25T03:49:01.970Z,33.23
2018-03-25T03:51:30.004Z,29.40
2018-03-25T03:53:58.019Z,30.90
2018-03-25T03:56:26.036Z,32.43
2018-03-25T03:58:54.059Z,31.00
2018-03-25T04:01:22.058Z,31.83
2018-03-25T04:03:50.078Z,28.63
2018-03-25T04:06:18.075Z,32.60
2018-03-25T04:08:46.105Z,29.10
2018-03-25T04:11:14.624Z,31.07
2018-03-25T04:13:42.634Z,32.00
2018-03-25T04:16:10.704Z,31.13
2018-03-25T04:18:38.710Z,32.60
2018-03-25T04:21:06.723Z,33.37
2018-03-25T04:23:34.745Z,30.30
2018-03-25T04:26:02.784Z,31.73
2018-03-25T04:28:30.833Z,34.00
2018-03-25T04:30:58.825Z,31.77
2018-03-25T04:33:26.833Z,33.23
2018-03-25T04:35:54.905Z,32.60
2018-03-25T04:38:22.911Z,34.00
2018-03-25T04:40:51.016Z,34.97
2018-03-25T04:43:19.058Z,37.80
2018-03-25T04:45:47.680Z,35.77
2018-03-25T04:48:15.854Z,32.87
2018-03-25T04:50:43.910Z,35.70
2018-03-25T04:53:11.976Z,35.27
2018-03-25T04:55:39.983Z,39.23
2018-03-25T04:58:07.991Z,37.30
2018-03-25T05:00:35.989Z,36.53
2018-03-25T05:03:04.003Z,36.53
2018-03-25T05:05:32.016Z,37.90
2018-03-25T05:08:00.038Z,35.60
2018-03-25T05:10:28.011Z,36.17
2018-03-25T05:12:55.991Z,36.90
2018-03-25T05:15:24.012Z,38.10
2018-03-25T05:17:51.994Z,37.70
2018-03-25T05:20:20.021Z,37.57
2018-03-25T05:22:48.020Z,35.20
2018-03-25T05:25:16.038Z,36.00
2018-03-25T05:27:44.051Z,37.90
2018-03-25T05:30:12.097Z,37.00
2018-03-25T05:32:40.102Z,39.90
2018-03-25T05:35:08.084Z,39.47
2018-03-25T05:37:36.139Z,36.67
2018-03-25T05:40:04.197Z,38.43
2018-03-25T05:42:32.222Z,39.60
2018-03-25T05:45:00.255Z,36.13
2018-03-25T05:47:28.394Z,37.50
2018-03-25T05:49:56.387Z,38.30
2018-03-25T05:52:24.380Z,37.30
2018-03-25T05:54:52.422Z,40.40
2018-03-25T05:57:20.412Z,40.00
2018-03-25T05:59:48.425Z,42.83
2018-03-25T06:02:16.424Z,39.07
2018-03-25T06:04:44.514Z,41.40
2018-03-25T06:07:12.599Z,38.70
2018-03-25T06:09:40.638Z,40.60
2018-03-25T06:12:08.639Z,39.13
2018-03-25T06:14:36.710Z,36.60
2018-03-25T06:17:04.759Z,38.37
2018-03-25T06:19:32.822Z,40.90
2018-03-25T06:22:00.842Z,41.90
2018-03-25T06:24:28.876Z,38.30
2018-03-25T06:26:56.933Z,39.20
2018-03-25T06:29:25.000Z,41.30
2018-03-25T06:31:53.094Z,37.83
2018-03-25T06:34:21.129Z,38.23
2018-03-25T06:36:49.178Z,41.23
2018-03-25T06:39:17.235Z,37.00
2018-03-25T06:41:45.251Z,38.03
2018-03-25T06:44:13.338Z,40.30
2018-03-25T06:46:41.332Z,38.03
2018-03-25T06:49:09.369Z,40.50
2018-03-25T06:51:38.607Z,39.33
2018-03-25T06:54:06.978Z,40.53
2018-03-25T06:56:35.034Z,37.97
2018-03-25T06:59:03.058Z,40.00
2018-03-25T07:01:31.055Z,37.77
2018-03-25T07:03:59.347Z,40.20
2018-03-25T07:06:27.344Z,37.27
2018-03-25T07:08:56.308Z,39.87
2018-03-25T07:11:24.359Z,40.80
2018-03-25T07:13:52.426Z,40.17
2018-03-25T07:16:20.573Z,39.70
2018-03-25T07:18:48.581Z,40.47
2018-03-25T07:21:16.607Z,39.57
2018-03-25T07:23:44.614Z,40.37
2018-03-25T07:26:12.608Z,43.33
2018-03-25T07:28:40.645Z,41.43
2018-03-25T07:31:08.630Z,42.67
2018-03-25T07:33:36.625Z,40.07
2018-03-25T07:36:04.648Z,37.20
2018-03-25T07:38:32.655Z,35.33
2018-03-25T07:41:00.720Z,39.77
2018-03-25T07:43:28.710Z,38.40
2018-03-25T07:45:56.741Z,39.60
2018-03-25T07:48:24.748Z,37.60
2018-03-25T07:50:52.755Z,36.80
2018-03-25T07:53:20.783Z,37.60
2018-03-25T07:55:49.701Z,36.57
2018-03-25T07:58:17.764Z,35.40
2018-03-25T08:00:45.868Z,38.00
2018-03-25T08:03:14.005Z,35.80
2018-03-25T08:05:42.127Z,36.10
2018-03-25T08:08:10.169Z,35.47
2018-03-25T08:10:38.201Z,33.63
2018-03-25T08:13:06.817Z,33.60
2018-03-25T08:15:34.832Z,32.43
2018-03-25T08:18:02.827Z,32.10
2018-03-25T08:20:31.518Z,30.57
2018-03-25T08:22:59.591Z,32.63
2018-03-25T08:25:27.677Z,31.50
2018-03-25T08:27:55.695Z,31.53
2018-03-25T08:30:23.763Z,30.17
2018-03-25T08:32:51.796Z,28.87
2018-03-25T08:35:19.808Z,28.20
2018-03-25T08:37:47.800Z,29.83
2018-03-25T08:40:15.971Z,29.83
2018-03-25T08:42:43.965Z,29.90
2018-03-25T08:45:12.077Z,29.93
2018-03-25T08:47:40.120Z,30.60
2018-03-25T08:50:08.266Z,30.03
2018-03-25T08:52:36.307Z,26.83
2018-03-25T08:55:04.326Z,27.83
2018-03-25T08:57:32.366Z,43.63
2018-03-25T09:00:00.353Z,29.83
2018-03-25T09:02:28.371Z,29.87
2018-03-25T09:04:56.396Z,30.57
2018-03-25T09:07:24.392Z,25.67
2018-03-25T09:09:52.440Z,22.60
2018-03-25T09:12:20.459Z,25.47
2018-03-25T09:14:48.511Z,25.20
2018-03-25T09:17:16.545Z,25.40
2018-03-25T09:19:44.577Z,24.63
2018-03-25T09:22:12.588Z,26.50
2018-03-25T09:24:40.586Z,24.53
2018-03-25T09:27:08.637Z,24.13
2018-03-25T09:29:36.656Z,26.63
2018-03-25T09:32:06.037Z,28.20
2018-03-25T09:34:34.275Z,28.13
2018-03-25T09:37:02.438Z,27.67
2018-03-25T09:39:30.465Z,24.30
2018-03-25T09:41:58.527Z,24.27
2018-03-25T09:44:27.187Z,26.27
2018-03-25T09:46:55.169Z,23.33
2018-03-25T09:49:23.194Z,25.40
2018-03-25T09:51:51.201Z,23.17
2018-03-25T09:54:19.239Z,22.50
2018-03-25T09:56:47.270Z,22.33
2018-03-25T09:59:15.718Z,22.67
2018-03-25T10:01:49.488Z,22.13
2018-03-25T10:04:17.589Z,21.73
2018-03-25T10:06:45.622Z,22.03
2018-03-25T10:09:13.795Z,20.97
2018-03-25T10:11:41.818Z,20.57
2018-03-25T10:14:09.826Z,59.77
2018-03-25T10:16:38.172Z,52.87
2018-03-25T10:19:06.261Z,32.53
2018-03-25T10:21:34.310Z,28.10
2018-03-25T10:24:02.335Z,24.80
2018-03-25T10:26:30.359Z,18.67
2018-03-25T10:28:58.398Z,14.50
2018-03-25T10:31:26.548Z,16.17
2018-03-25T10:33:54.603Z,17.43
2018-03-25T10:36:22.631Z,16.23
2018-03-25T10:38:50.655Z,18.43
2018-03-25T10:41:18.704Z,15.23
2018-03-25T10:43:46.810Z,17.50
2018-03-25T10:46:14.944Z,17.83
2018-03-25T10:48:42.934Z,16.30
2018-03-25T10:51:10.957Z,18.60
2018-03-25T10:53:39.029Z,17.30
2018-03-25T10:56:07.026Z,17.97
2018-03-25T10:58:35.006Z,15.17
2018-03-25T11:01:03.041Z,17.37
2018-03-25T11:03:31.107Z,16.33
2018-03-25T11:06:00.505Z,16.93
2018-03-25T11:08:29.882Z,16.67
2018-03-25T11:10:57.946Z,16.90
2018-03-25T11:13:26.119Z,15.97
2018-03-25T11:15:54.293Z,14.70
2018-03-25T11:18:22.365Z,14.40
2018-03-25T11:20:50.517Z,15.70
2018-03-25T11:23:18.606Z,16.73
2018-03-25T11:25:46.726Z,15.97
2018-03-25T11:28:14.866Z,15.97
2018-03-25T11:30:42.924Z,15.63
2018-03-25T11:33:11.098Z,14.60
2018-03-25T11:35:39.121Z,15.20
2018-03-25T11:38:07.191Z,16.87
2018-03-25T11:40:35.232Z,16.53
2018-03-25T11:43:03.285Z,16.57
2018-03-25T11:45:31.385Z,16.27
2018-03-25T11:47:59.420Z,17.33
2018-03-25T11:50:27.443Z,16.43
2018-03-25T11:52:55.463Z,15.30
2018-03-25T11:55:23.538Z,16.43
2018-03-25T11:57:51.605Z,16.07
2018-03-25T12:00:19.680Z,17.10
2018-03-25T12:02:47.794Z,19.23
2018-03-25T12:05:15.820Z,20.10
2018-03-25T12:07:43.869Z,20.97
2018-03-25T12:10:11.912Z,27.37
2018-03-25T12:12:39.936Z,28.03
2018-03-25T12:15:08.014Z,30.50
2018-03-25T12:17:36.025Z,32.87
2018-03-25T12:20:04.362Z,31.20
2018-03-25T12:22:32.367Z,29.60
2018-03-25T12:25:00.428Z,28.70
2018-03-25T12:27:28.489Z,29.00
2018-03-25T12:29:56.493Z,29.97
2018-03-25T12:32:24.504Z,28.87
2018-03-25T12:34:52.649Z,29.87
2018-03-25T12:37:20.791Z,30.20
2018-03-25T12:39:48.812Z,27.57
2018-03-25T12:42:16.859Z,27.37
2018-03-25T12:44:45.355Z,27.60
2018-03-25T12:47:13.661Z,27.77
2018-03-25T12:49:42.307Z,25.50
2018-03-25T12:52:10.351Z,23.80
2018-03-25T12:54:38.371Z,25.13
2018-03-25T12:57:06.366Z,22.17
2018-03-25T12:59:34.385Z,22.40
2018-03-25T13:02:02.513Z,24.27
2018-03-25T13:04:30.522Z,21.77
2018-03-25T13:06:58.531Z,21.63
2018-03-25T13:09:26.603Z,19.97
2018-03-25T13:11:54.605Z,20.40
2018-03-25T13:14:22.682Z,21.87
2018-03-25T13:16:50.706Z,21.50
2018-03-25T13:19:18.699Z,22.50
2018-03-25T13:21:46.889Z,20.50
2018-03-25T13:24:14.988Z,19.80
2018-03-25T13:26:42.993Z,19.87
2018-03-25T13:29:11.088Z,20.03
2018-03-25T13:31:39.107Z,18.57
2018-03-25T13:34:07.128Z,18.17
2018-03-25T13:36:35.389Z,19.50
2018-03-25T13:39:03.452Z,18.00
2018-03-25T13:41:31.459Z,18.90
2018-03-25T13:43:59.479Z,18.23
2018-03-25T13:46:27.497Z,16.40
2018-03-25T13:48:56.093Z,16.00
2018-03-25T13:51:24.118Z,16.50
2018-03-25T13:53:52.239Z,16.40
2018-03-25T13:56:20.225Z,15.27
2018-03-25T13:58:48.544Z,16.07
2018-03-25T14:01:16.595Z,14.53
2018-03-25T14:03:44.793Z,15.00
2018-03-25T14:06:12.862Z,16.07
2018-03-25T14:08:40.906Z,15.87
2018-03-25T14:11:08.960Z,15.40
2018-03-25T14:13:37.001Z,14.23
2018-03-25T14:16:05.081Z,15.33
2018-03-25T14:18:33.115Z,15.00
2018-03-25T14:21:01.145Z,14.33
2018-03-25T14:23:29.217Z,15.30
2018-03-25T14:25:57.239Z,14.83
2018-03-25T14:28:25.340Z,13.80
2018-03-25T14:30:53.530Z,15.30
2018-03-25T14:33:21.634Z,16.20
2018-03-25T14:35:49.781Z,16.20
2018-03-25T14:38:17.819Z,17.80
2018-03-25T14:40:45.860Z,18.60
2018-03-25T14:43:13.946Z,19.03
2018-03-25T14:45:42.302Z,17.77
2018-03-25T14:48:10.938Z,17.10
2018-03-25T14:50:38.998Z,18.17
2018-03-25T14:53:07.132Z,16.40
2018-03-25T14:55:35.186Z,17.00
2018-03-25T14:58:03.246Z,15.83
2018-03-25T15:00:31.357Z,15.93
2018-03-25T15:02:59.414Z,17.50
2018-03-25T15:05:27.408Z,15.60
2018-03-25T15:07:55.410Z,15.03
2018-03-25T15:10:23.497Z,16.57
2018-03-25T15:12:51.495Z,16.33
2018-03-25T15:15:19.539Z,16.70
2018-03-25T15:17:47.585Z,15.90
2018-03-25T15:20:15.625Z,14.90
2018-03-25T15:22:43.707Z,15.67
2018-03-25T15:25:11.768Z,15.60
2018-03-25T15:27:39.810Z,15.90
2018-03-25T15:30:07.927Z,15.57
2018-03-25T15:32:36.015Z,16.40
2018-03-25T15:35:04.114Z,14.87
2018-03-25T15:37:32.127Z,16.47
2018-03-25T15:40:00.181Z,16.80
2018-03-25T15:42:28.253Z,14.70
2018-03-25T15:44:56.284Z,16.00
2018-03-25T15:47:24.305Z,16.73
2018-03-25T15:49:52.373Z,15.17
2018-03-25T15:52:20.496Z,16.17
2018-03-25T15:54:48.556Z,15.20
2018-03-25T15:57:17.367Z,16.30
2018-03-25T15:59:48.266Z,15.77
2018-03-25T16:02:16.364Z,14.03
2018-03-25T16:04:44.678Z,16.23
2018-03-25T16:07:12.706Z,14.93
2018-03-25T16:09:40.829Z,15.13
2018-03-25T16:12:08.796Z,15.50
2018-03-25T16:14:36.822Z,15.70
2018-03-25T16:17:04.873Z,15.77
2018-03-25T16:19:32.928Z,15.80
2018-03-25T16:22:01.068Z,16.00
2018-03-25T16:24:30.320Z,16.90
2018-03-25T16:26:58.443Z,15.13
2018-03-25T16:29:26.857Z,16.33
2018-03-25T16:31:54.933Z,16.30
2018-03-25T16:34:22.963Z,15.87
2018-03-25T16:36:50.970Z,17.10
2018-03-25T16:39:18.973Z,14.80
2018-03-25T16:41:47.001Z,16.40
2018-03-25T16:44:15.010Z,17.37
2018-03-25T16:46:43.037Z,14.23
2018-03-25T16:49:11.026Z,16.23
2018-03-25T16:51:39.067Z,16.20
2018-03-25T16:54:07.059Z,15.77
2018-03-25T16:56:35.089Z,15.30
2018-03-25T16:59:03.096Z,17.07
2018-03-25T17:01:31.138Z,15.33
2018-03-25T17:03:59.154Z,16.23
2018-03-25T17:06:27.349Z,16.90
2018-03-25T17:08:55.354Z,16.10
2018-03-25T17:11:23.399Z,15.67
2018-03-25T17:13:51.411Z,14.93
2018-03-25T17:16:19.406Z,15.97
2018-03-25T17:18:47.398Z,17.13
2018-03-25T17:21:15.435Z,16.97
2018-03-25T17:23:43.474Z,17.80
2018-03-25T17:26:11.478Z,15.97
2018-03-25T17:28:39.485Z,15.97
2018-03-25T17:31:07.847Z,15.23
2018-03-25T17:33:35.838Z,17.10
2018-03-25T17:36:04.118Z,14.90
2018-03-25T17:38:32.166Z,16.37
2018-03-25T17:41:00.182Z,14.70
2018-03-25T17:43:28.199Z,16.23
2018-03-25T17:45:56.173Z,17.10
2018-03-25T17:48:24.179Z,17.63
2018-03-25T17:50:52.219Z,18.57
2018-03-25T17:53:20.270Z,15.00
2018-03-25T17:55:48.291Z,17.60
2018-03-25T17:58:16.293Z,17.03
2018-03-25T18:00:44.847Z,17.57
2018-03-25T18:03:13.316Z,18.07
2018-03-25T18:05:41.337Z,17.53
2018-03-25T18:08:09.465Z,17.87
2018-03-25T18:10:37.476Z,160.17
2018-03-25T18:13:06.147Z,99.93
2018-03-25T18:15:34.177Z,26.37
2018-03-25T18:18:02.177Z,19.23
2018-03-25T18:20:30.195Z,18.87
2018-03-25T18:22:58.236Z,18.20
2018-03-25T18:25:26.236Z,16.03
2018-03-25T18:27:54.300Z,17.40
2018-03-25T18:30:22.313Z,19.50
2018-03-25T18:32:50.631Z,17.90
2018-03-25T18:35:18.803Z,18.80
2018-03-25T18:37:46.827Z,17.57
2018-03-25T18:40:15.457Z,17.13
2018-03-25T18:42:43.460Z,18.60
2018-03-25T18:45:13.372Z,17.63
2018-03-25T18:47:41.435Z,18.53
2018-03-25T18:50:09.465Z,18.17
2018-03-25T18:52:37.454Z,21.27
2018-03-25T18:55:05.455Z,21.10
2018-03-25T18:57:33.486Z,20.13
2018-03-25T19:00:01.494Z,19.93
2018-03-25T19:02:29.535Z,20.13
2018-03-25T19:04:58.792Z,22.40
2018-03-25T19:07:26.833Z,22.47
2018-03-25T19:09:56.683Z,21.47
2018-03-25T19:12:25.163Z,51.57
2018-03-25T19:14:53.371Z,76.20
2018-03-25T19:17:21.470Z,59.07
2018-03-25T19:19:49.569Z,48.13
2018-03-25T19:22:17.577Z,58.80
2018-03-25T19:24:45.589Z,81.03
2018-03-25T19:27:13.683Z,51.00
2018-03-25T19:29:41.736Z,36.67
2018-03-25T19:32:09.860Z,104.13
2018-03-25T19:34:37.966Z,75.53
2018-03-25T19:37:06.276Z,62.47
2018-03-25T19:39:34.329Z,38.40
2018-03-25T19:42:02.886Z,32.50
2018-03-25T19:44:30.896Z,32.03
2018-03-25T19:46:59.477Z,32.07
2018-03-25T19:49:27.552Z,29.10
2018-03-25T19:51:55.578Z,28.53
2018-03-25T19:54:23.623Z,25.20
2018-03-25T19:56:51.664Z,24.57
2018-03-25T19:59:19.651Z,22.13
2018-03-25T20:01:49.951Z,34.93
2018-03-25T20:04:18.027Z,73.20
2018-03-25T20:06:46.026Z,65.67
2018-03-25T20:09:14.069Z,70.37
2018-03-25T20:11:42.115Z,64.77
2018-03-25T20:14:10.177Z,89.00
2018-03-25T20:16:38.236Z,128.77
2018-03-25T20:19:07.287Z,127.13
2018-03-25T20:21:35.391Z,97.87
2018-03-25T20:24:03.878Z,46.17
2018-03-25T20:26:31.905Z,37.27
2018-03-25T20:29:01.131Z,43.60
2018-03-25T20:31:29.189Z,36.77
2018-03-25T20:33:57.191Z,37.27
2018-03-25T20:36:25.862Z,21.70
2018-03-25T20:38:54.137Z,21.60
2018-03-25T20:41:22.176Z,22.40
2018-03-25T20:43:50.189Z,24.80
2018-03-25T20:46:19.114Z,23.07
2018-03-25T20:48:47.137Z,21.00
2018-03-25T20:51:15.314Z,24.53
2018-03-25T20:53:43.491Z,23.83
2018-03-25T20:56:11.610Z,24.40
2018-03-25T20:58:39.651Z,31.07
2018-03-25T21:01:07.966Z,28.30
2018-03-25T21:03:36.202Z,24.87
2018-03-25T21:06:04.267Z,25.50
2018-03-25T21:08:32.912Z,26.40
2018-03-25T21:11:01.231Z,60.30
2018-03-25T21:13:29.304Z,25.30
2018-03-25T21:15:57.340Z,27.47
2018-03-25T21:18:25.699Z,26.63
2018-03-25T21:20:53.810Z,24.20
2018-03-25T21:23:21.855Z,23.63
2018-03-25T21:25:49.866Z,25.90
2018-03-25T21:28:17.876Z,22.80
2018-03-25T21:30:51.748Z,34.30
2018-03-25T21:33:19.856Z,24.40
2018-03-25T21:35:47.942Z,30.60
2018-03-25T21:38:16.300Z,28.60
2018-03-25T21:40:45.135Z,23.97
2018-03-25T21:43:13.161Z,23.60
2018-03-25T21:45:41.218Z,23.40
2018-03-25T21:48:09.303Z,27.50
2018-03-25T21:50:37.497Z,24.30
2018-03-25T21:53:05.521Z,36.63
2018-03-25T21:55:33.557Z,26.73
2018-03-25T21:58:01.624Z,23.50
2018-03-25T22:00:29.658Z,25.27
2018-03-25T22:03:07.394Z,23.60
2018-03-25T22:05:35.427Z,22.90
2018-03-25T22:08:03.479Z,22.97
2018-03-25T22:10:31.507Z,24.00
2018-03-25T22:12:59.555Z,24.77
2018-03-25T22:15:27.621Z,25.20
2018-03-25T22:17:55.720Z,25.73
2018-03-25T22:20:23.746Z,25.17
2018-03-25T22:22:52.136Z,25.60
2018-03-25T22:25:20.177Z,22.03
2018-03-25T22:27:48.192Z,23.03
2018-03-25T22:30:16.910Z,22.90
2018-03-25T22:32:44.981Z,22.53
2018-03-25T22:35:12.978Z,24.60
2018-03-25T22:37:40.983Z,22.63
2018-03-25T22:40:09.003Z,24.73
2018-03-25T22:42:37.638Z,23.80
2018-03-25T22:45:06.467Z,25.83
2018-03-25T22:47:35.724Z,25.70
2018-03-25T22:50:03.722Z,24.57
2018-03-25T22:52:31.815Z,26.17
2018-03-25T22:55:05.751Z,25.53
2018-03-25T22:57:33.790Z,25.33
2018-03-25T23:00:01.818Z,26.37
2018-03-25T23:02:29.862Z,25.13
2018-03-25T23:04:57.889Z,28.03
2018-03-25T23:07:26.433Z,27.70
2018-03-25T23:09:58.258Z,27.13
2018-03-25T23:12:26.598Z,28.70
2018-03-25T23:14:54.585Z,28.73
2018-03-25T23:17:22.566Z,28.43
2018-03-25T23:19:50.593Z,27.07
2018-03-25T23:22:18.599Z,27.10
2018-03-25T23:24:47.214Z,28.77
2018-03-25T23:27:15.270Z,27.33
2018-03-25T23:29:43.269Z,28.07
2018-03-25T23:32:11.282Z,27.70
2018-03-25T23:34:39.306Z,28.27
2018-03-25T23:37:07.302Z,29.00
2018-03-25T23:39:36.368Z,30.20
2018-03-25T23:42:04.431Z,27.87
2018-03-25T23:44:32.426Z,29.30
2018-03-25T23:47:00.442Z,30.00
2018-03-25T23:49:28.461Z,29.47
2018-03-25T23:51:57.115Z,31.30
2018-03-25T23:54:25.158Z,29.70
2018-03-25T23:56:53.195Z,30.10
2018-03-25T23:59:21.248Z,31.00
